sensor_id;sensor_type;location;lat;lon;timestamp;P1;durP1;ratioP1;P2;durP2;ratioP2
53064;SDS011;38948;48.376;-4.312;2022-10-01T00:00:55;0.50;;;0.30;;
53064;SDS011;38948;48.376;-4.312;2022-10-01T00:03:23;0.52;;;0.15;;
53064;SDS011;38948;48.376;-4.312;2022-10-01T00:08:28;1.13;;;0.50;;
53064;SDS011;38948;48.376;-4.312;2022-10-01T00:10:55;2.33;;;0.28;;
53064;SDS011;38948;48.376;-4.312;2022-10-01T00:13:22;0.73;;;0.30;;
53064;SDS011;38948;48.376;-4.312;2022-10-01T00:15:48;2.45;;;0.40;;
53064;SDS011;38948;48.376;-4.312;2022-10-01T00:18:14;1.75;;;0.45;;
53064;SDS011;38948;48.376;-4.312;2022-10-01T00:20:41;0.47;;;0.30;;
53064;SDS011;38948;48.376;-4.312;2022-10-01T00:23:11;0.88;;;0.32;;
53064;SDS011;38948;48.376;-4.312;2022-10-01T00:25:37;1.20;;;0.45;;
53064;SDS011;38948;48.376;-4.312;2022-10-01T00:28:04;1.65;;;0.40;;
53064;SDS011;38948;48.376;-4.312;2022-10-01T00:30:30;2.75;;;0.50;;
53064;SDS011;38948;48.376;-4.312;2022-10-01T00:32:56;2.22;;;0.75;;
53064;SDS011;38948;48.376;-4.312;2022-10-01T00:35:23;0.47;;;0.15;;
53064;SDS011;38948;48.376;-4.312;2022-10-01T00:37:49;0.90;;;0.50;;
53064;SDS011;38948;48.376;-4.312;2022-10-01T00:40:16;1.80;;;0.50;;
53064;SDS011;38948;48.376;-4.312;2022-10-01T00:42:43;4.75;;;0.63;;
53064;SDS011;38948;48.376;-4.312;2022-10-01T00:45:10;1.35;;;0.30;;
53064;SDS011;38948;48.376;-4.312;2022-10-01T00:50:19;1.20;;;0.40;;
53064;SDS011;38948;48.376;-4.312;2022-10-01T00:52:48;3.00;;;0.55;;
53064;SDS011;38948;48.376;-4.312;2022-10-01T00:55:22;2.92;;;0.47;;
53064;SDS011;38948;48.376;-4.312;2022-10-01T00:57:50;0.77;;;0.30;;
53064;SDS011;38948;48.376;-4.312;2022-10-01T01:00:17;0.70;;;0.22;;
53064;SDS011;38948;48.376;-4.312;2022-10-01T01:02:43;1.33;;;0.35;;
53064;SDS011;38948;48.376;-4.312;2022-10-01T01:05:09;1.40;;;0.40;;
53064;SDS011;38948;48.376;-4.312;2022-10-01T01:07:38;0.75;;;0.40;;
53064;SDS011;38948;48.376;-4.312;2022-10-01T01:10:05;0.40;;;0.28;;
53064;SDS011;38948;48.376;-4.312;2022-10-01T01:22:50;3.13;;;0.38;;
53064;SDS011;38948;48.376;-4.312;2022-10-01T01:25:18;1.48;;;0.52;;
53064;SDS011;38948;48.376;-4.312;2022-10-01T01:28:09;0.57;;;0.20;;
53064;SDS011;38948;48.376;-4.312;2022-10-01T01:30:31;1.55;;;0.40;;
53064;SDS011;38948;48.376;-4.312;2022-10-01T01:33:02;0.93;;;0.40;;
53064;SDS011;38948;48.376;-4.312;2022-10-01T01:35:30;0.98;;;0.40;;
53064;SDS011;38948;48.376;-4.312;2022-10-01T01:38:00;0.93;;;0.20;;
53064;SDS011;38948;48.376;-4.312;2022-10-01T01:40:27;1.65;;;0.30;;
53064;SDS011;38948;48.376;-4.312;2022-10-01T01:42:54;0.65;;;0.30;;
53064;SDS011;38948;48.376;-4.312;2022-10-01T01:45:22;0.98;;;0.10;;
53064;SDS011;38948;48.376;-4.312;2022-10-01T01:47:48;1.00;;;0.22;;
53064;SDS011;38948;48.376;-4.312;2022-10-01T01:50:15;1.25;;;0.10;;
53064;SDS011;38948;48.376;-4.312;2022-10-01T01:52:42;1.23;;;0.40;;
53064;SDS011;38948;48.376;-4.312;2022-10-01T01:55:09;1.75;;;0.40;;
53064;SDS011;38948;48.376;-4.312;2022-10-01T01:57:36;3.58;;;0.65;;
53064;SDS011;38948;48.376;-4.312;2022-10-01T02:00:04;2.15;;;0.50;;
53064;SDS011;38948;48.376;-4.312;2022-10-01T02:02:30;1.08;;;0.30;;
53064;SDS011;38948;48.376;-4.312;2022-10-01T02:05:04;0.77;;;0.22;;
53064;SDS011;38948;48.376;-4.312;2022-10-01T02:15:07;1.15;;;0.50;;
53064;SDS011;38948;48.376;-4.312;2022-10-01T02:20:14;3.25;;;0.25;;
53064;SDS011;38948;48.376;-4.312;2022-10-01T02:22:49;2.42;;;0.50;;
53064;SDS011;38948;48.376;-4.312;2022-10-01T02:25:17;1.00;;;0.32;;
53064;SDS011;38948;48.376;-4.312;2022-10-01T02:27:53;2.90;;;0.50;;
53064;SDS011;38948;48.376;-4.312;2022-10-01T02:30:23;0.98;;;0.35;;
53064;SDS011;38948;48.376;-4.312;2022-10-01T02:32:49;0.68;;;0.30;;
53064;SDS011;38948;48.376;-4.312;2022-10-01T02:35:16;2.13;;;0.50;;
53064;SDS011;38948;48.376;-4.312;2022-10-01T02:37:44;0.30;;;0.10;;
53064;SDS011;38948;48.376;-4.312;2022-10-01T02:40:11;2.22;;;0.90;;
53064;SDS011;38948;48.376;-4.312;2022-10-01T02:42:40;0.93;;;0.40;;
53064;SDS011;38948;48.376;-4.312;2022-10-01T02:45:07;2.40;;;0.30;;
53064;SDS011;38948;48.376;-4.312;2022-10-01T02:47:40;0.85;;;0.35;;
53064;SDS011;38948;48.376;-4.312;2022-10-01T02:52:54;0.45;;;0.20;;
53064;SDS011;38948;48.376;-4.312;2022-10-01T02:55:28;0.63;;;0.30;;
53064;SDS011;38948;48.376;-4.312;2022-10-01T02:57:55;2.13;;;0.43;;
53064;SDS011;38948;48.376;-4.312;2022-10-01T03:00:21;1.30;;;0.43;;
53064;SDS011;38948;48.376;-4.312;2022-10-01T03:02:48;1.50;;;0.22;;
53064;SDS011;38948;48.376;-4.312;2022-10-01T03:05:14;1.67;;;0.38;;
53064;SDS011;38948;48.376;-4.312;2022-10-01T03:07:41;0.50;;;0.25;;
53064;SDS011;38948;48.376;-4.312;2022-10-01T03:10:08;1.65;;;0.32;;
53064;SDS011;38948;48.376;-4.312;2022-10-01T03:12:34;0.85;;;0.40;;
53064;SDS011;38948;48.376;-4.312;2022-10-01T03:15:00;1.90;;;0.50;;
53064;SDS011;38948;48.376;-4.312;2022-10-01T03:17:27;0.80;;;0.50;;
53064;SDS011;38948;48.376;-4.312;2022-10-01T03:19:53;1.85;;;0.65;;
53064;SDS011;38948;48.376;-4.312;2022-10-01T03:22:21;1.25;;;0.30;;
53064;SDS011;38948;48.376;-4.312;2022-10-01T03:24:51;0.98;;;0.22;;
53064;SDS011;38948;48.376;-4.312;2022-10-01T03:27:18;3.58;;;0.70;;
53064;SDS011;38948;48.376;-4.312;2022-10-01T03:29:44;1.17;;;0.40;;
53064;SDS011;38948;48.376;-4.312;2022-10-01T03:32:10;1.20;;;0.43;;
53064;SDS011;38948;48.376;-4.312;2022-10-01T03:34:36;1.15;;;0.50;;
53064;SDS011;38948;48.376;-4.312;2022-10-01T03:37:03;1.65;;;0.28;;
53064;SDS011;38948;48.376;-4.312;2022-10-01T03:39:29;1.17;;;0.50;;
53064;SDS011;38948;48.376;-4.312;2022-10-01T03:41:55;2.13;;;0.50;;
53064;SDS011;38948;48.376;-4.312;2022-10-01T03:44:21;2.42;;;0.47;;
53064;SDS011;38948;48.376;-4.312;2022-10-01T03:46:47;4.75;;;0.55;;
53064;SDS011;38948;48.376;-4.312;2022-10-01T03:49:14;2.47;;;0.50;;
53064;SDS011;38948;48.376;-4.312;2022-10-01T03:51:40;1.67;;;0.38;;
53064;SDS011;38948;48.376;-4.312;2022-10-01T03:54:07;0.68;;;0.35;;
53064;SDS011;38948;48.376;-4.312;2022-10-01T03:56:34;0.80;;;0.28;;
53064;SDS011;38948;48.376;-4.312;2022-10-01T03:59:00;2.17;;;0.75;;
53064;SDS011;38948;48.376;-4.312;2022-10-01T04:01:26;3.53;;;0.60;;
53064;SDS011;38948;48.376;-4.312;2022-10-01T04:03:52;1.23;;;0.10;;
53064;SDS011;38948;48.376;-4.312;2022-10-01T04:06:18;1.92;;;0.70;;
53064;SDS011;38948;48.376;-4.312;2022-10-01T04:08:45;2.38;;;0.60;;
53064;SDS011;38948;48.376;-4.312;2022-10-01T04:11:11;4.30;;;0.70;;
53064;SDS011;38948;48.376;-4.312;2022-10-01T04:13:37;2.70;;;0.40;;
53064;SDS011;38948;48.376;-4.312;2022-10-01T04:16:03;1.55;;;0.50;;
53064;SDS011;38948;48.376;-4.312;2022-10-01T04:18:30;1.80;;;0.57;;
53064;SDS011;38948;48.376;-4.312;2022-10-01T04:20:57;1.70;;;0.60;;
53064;SDS011;38948;48.376;-4.312;2022-10-01T04:23:23;3.63;;;0.98;;
53064;SDS011;38948;48.376;-4.312;2022-10-01T04:25:50;0.75;;;0.30;;
53064;SDS011;38948;48.376;-4.312;2022-10-01T04:28:16;1.92;;;0.45;;
53064;SDS011;38948;48.376;-4.312;2022-10-01T04:30:43;2.95;;;0.60;;
53064;SDS011;38948;48.376;-4.312;2022-10-01T04:33:13;2.97;;;0.70;;
53064;SDS011;38948;48.376;-4.312;2022-10-01T04:35:39;1.80;;;0.30;;
53064;SDS011;38948;48.376;-4.312;2022-10-01T04:38:06;3.90;;;0.85;;
53064;SDS011;38948;48.376;-4.312;2022-10-01T04:40:33;3.42;;;0.63;;
53064;SDS011;38948;48.376;-4.312;2022-10-01T04:43:00;4.28;;;0.75;;
53064;SDS011;38948;48.376;-4.312;2022-10-01T04:45:26;3.25;;;0.70;;
53064;SDS011;38948;48.376;-4.312;2022-10-01T04:47:53;1.25;;;0.55;;
53064;SDS011;38948;48.376;-4.312;2022-10-01T04:50:20;2.03;;;0.60;;
53064;SDS011;38948;48.376;-4.312;2022-10-01T04:52:46;2.63;;;0.57;;
53064;SDS011;38948;48.376;-4.312;2022-10-01T04:55:13;2.17;;;0.68;;
53064;SDS011;38948;48.376;-4.312;2022-10-01T04:57:39;3.20;;;0.90;;
53064;SDS011;38948;48.376;-4.312;2022-10-01T05:00:06;4.07;;;0.80;;
53064;SDS011;38948;48.376;-4.312;2022-10-01T05:02:33;3.53;;;0.77;;
53064;SDS011;38948;48.376;-4.312;2022-10-01T05:05:00;1.60;;;0.50;;
53064;SDS011;38948;48.376;-4.312;2022-10-01T05:07:28;2.13;;;0.63;;
53064;SDS011;38948;48.376;-4.312;2022-10-01T05:09:54;2.83;;;0.73;;
53064;SDS011;38948;48.376;-4.312;2022-10-01T05:12:21;1.30;;;0.40;;
53064;SDS011;38948;48.376;-4.312;2022-10-01T05:14:52;1.48;;;0.60;;
53064;SDS011;38948;48.376;-4.312;2022-10-01T05:17:19;3.13;;;0.75;;
53064;SDS011;38948;48.376;-4.312;2022-10-01T05:19:45;3.80;;;0.70;;
53064;SDS011;38948;48.376;-4.312;2022-10-01T05:22:11;2.25;;;0.50;;
53064;SDS011;38948;48.376;-4.312;2022-10-01T05:24:38;2.05;;;0.60;;
53064;SDS011;38948;48.376;-4.312;2022-10-01T05:27:04;1.30;;;0.65;;
53064;SDS011;38948;48.376;-4.312;2022-10-01T05:29:34;2.85;;;0.93;;
53064;SDS011;38948;48.376;-4.312;2022-10-01T05:32:01;2.45;;;0.40;;
53064;SDS011;38948;48.376;-4.312;2022-10-01T05:34:27;2.35;;;0.85;;
53064;SDS011;38948;48.376;-4.312;2022-10-01T05:36:54;3.25;;;0.52;;
53064;SDS011;38948;48.376;-4.312;2022-10-01T05:39:20;2.58;;;0.50;;
53064;SDS011;38948;48.376;-4.312;2022-10-01T05:41:46;4.72;;;0.75;;
53064;SDS011;38948;48.376;-4.312;2022-10-01T05:44:12;2.90;;;0.52;;
53064;SDS011;38948;48.376;-4.312;2022-10-01T05:46:38;1.17;;;0.40;;
53064;SDS011;38948;48.376;-4.312;2022-10-01T05:49:05;1.20;;;0.50;;
53064;SDS011;38948;48.376;-4.312;2022-10-01T05:51:32;2.67;;;0.73;;
53064;SDS011;38948;48.376;-4.312;2022-10-01T05:53:59;1.02;;;0.38;;
53064;SDS011;38948;48.376;-4.312;2022-10-01T05:56:26;1.42;;;0.50;;
53064;SDS011;38948;48.376;-4.312;2022-10-01T05:58:52;3.20;;;0.68;;
53064;SDS011;38948;48.376;-4.312;2022-10-01T06:01:19;0.77;;;0.50;;
53064;SDS011;38948;48.376;-4.312;2022-10-01T06:03:45;1.20;;;0.45;;
53064;SDS011;38948;48.376;-4.312;2022-10-01T06:06:11;2.10;;;0.55;;
53064;SDS011;38948;48.376;-4.312;2022-10-01T06:08:37;4.38;;;0.80;;
53064;SDS011;38948;48.376;-4.312;2022-10-01T06:11:03;2.47;;;0.55;;
53064;SDS011;38948;48.376;-4.312;2022-10-01T06:13:29;2.25;;;0.77;;
53064;SDS011;38948;48.376;-4.312;2022-10-01T06:15:56;5.00;;;0.85;;
53064;SDS011;38948;48.376;-4.312;2022-10-01T06:18:22;2.97;;;0.57;;
53064;SDS011;38948;48.376;-4.312;2022-10-01T06:20:48;2.70;;;0.40;;
53064;SDS011;38948;48.376;-4.312;2022-10-01T06:23:14;3.22;;;0.60;;
53064;SDS011;38948;48.376;-4.312;2022-10-01T06:25:41;5.10;;;0.52;;
53064;SDS011;38948;48.376;-4.312;2022-10-01T06:28:08;2.63;;;0.63;;
53064;SDS011;38948;48.376;-4.312;2022-10-01T06:30:36;1.95;;;0.47;;
53064;SDS011;38948;48.376;-4.312;2022-10-01T06:33:09;3.00;;;0.60;;
53064;SDS011;38948;48.376;-4.312;2022-10-01T06:35:38;3.97;;;0.90;;
53064;SDS011;38948;48.376;-4.312;2022-10-01T06:38:05;2.58;;;0.52;;
53064;SDS011;38948;48.376;-4.312;2022-10-01T06:40:32;3.92;;;0.73;;
53064;SDS011;38948;48.376;-4.312;2022-10-01T06:42:58;3.67;;;0.85;;
53064;SDS011;38948;48.376;-4.312;2022-10-01T06:45:25;3.35;;;0.57;;
53064;SDS011;38948;48.376;-4.312;2022-10-01T06:47:57;6.22;;;0.68;;
53064;SDS011;38948;48.376;-4.312;2022-10-01T06:50:26;3.95;;;0.47;;
53064;SDS011;38948;48.376;-4.312;2022-10-01T06:52:52;3.15;;;0.47;;
53064;SDS011;38948;48.376;-4.312;2022-10-01T06:55:21;3.10;;;0.77;;
53064;SDS011;38948;48.376;-4.312;2022-10-01T06:57:52;2.10;;;0.57;;
53064;SDS011;38948;48.376;-4.312;2022-10-01T07:00:18;2.70;;;0.50;;
53064;SDS011;38948;48.376;-4.312;2022-10-01T07:02:44;4.00;;;0.80;;
53064;SDS011;38948;48.376;-4.312;2022-10-01T07:05:10;2.70;;;0.50;;
53064;SDS011;38948;48.376;-4.312;2022-10-01T07:07:37;1.73;;;0.70;;
53064;SDS011;38948;48.376;-4.312;2022-10-01T07:10:04;3.65;;;0.70;;
53064;SDS011;38948;48.376;-4.312;2022-10-01T07:12:30;3.25;;;1.08;;
53064;SDS011;38948;48.376;-4.312;2022-10-01T07:14:57;1.88;;;0.68;;
53064;SDS011;38948;48.376;-4.312;2022-10-01T07:17:23;5.68;;;0.68;;
53064;SDS011;38948;48.376;-4.312;2022-10-01T07:19:49;5.20;;;0.90;;
53064;SDS011;38948;48.376;-4.312;2022-10-01T07:22:15;0.80;;;0.43;;
53064;SDS011;38948;48.376;-4.312;2022-10-01T07:24:48;2.30;;;0.50;;
53064;SDS011;38948;48.376;-4.312;2022-10-01T07:27:14;2.70;;;0.73;;
53064;SDS011;38948;48.376;-4.312;2022-10-01T07:29:40;5.25;;;0.90;;
53064;SDS011;38948;48.376;-4.312;2022-10-01T07:32:07;2.47;;;0.50;;
53064;SDS011;38948;48.376;-4.312;2022-10-01T07:34:35;4.43;;;0.88;;
53064;SDS011;38948;48.376;-4.312;2022-10-01T07:37:02;3.97;;;0.63;;
53064;SDS011;38948;48.376;-4.312;2022-10-01T07:39:28;4.13;;;0.95;;
53064;SDS011;38948;48.376;-4.312;2022-10-01T07:41:54;11.43;;;1.30;;
53064;SDS011;38948;48.376;-4.312;2022-10-01T07:44:21;5.88;;;1.33;;
53064;SDS011;38948;48.376;-4.312;2022-10-01T07:46:47;8.57;;;1.42;;
53064;SDS011;38948;48.376;-4.312;2022-10-01T07:49:13;7.80;;;1.40;;
53064;SDS011;38948;48.376;-4.312;2022-10-01T07:51:40;3.92;;;1.10;;
53064;SDS011;38948;48.376;-4.312;2022-10-01T07:54:10;4.22;;;0.80;;
53064;SDS011;38948;48.376;-4.312;2022-10-01T07:56:36;5.18;;;1.27;;
53064;SDS011;38948;48.376;-4.312;2022-10-01T07:59:02;3.25;;;1.08;;
53064;SDS011;38948;48.376;-4.312;2022-10-01T08:01:28;3.67;;;1.15;;
53064;SDS011;38948;48.376;-4.312;2022-10-01T08:03:57;2.83;;;0.88;;
53064;SDS011;38948;48.376;-4.312;2022-10-01T08:06:23;4.95;;;0.82;;
53064;SDS011;38948;48.376;-4.312;2022-10-01T08:08:49;5.63;;;1.65;;
53064;SDS011;38948;48.376;-4.312;2022-10-01T08:11:16;4.03;;;0.95;;
53064;SDS011;38948;48.376;-4.312;2022-10-01T08:13:42;3.75;;;0.90;;
53064;SDS011;38948;48.376;-4.312;2022-10-01T08:16:12;7.82;;;1.00;;
53064;SDS011;38948;48.376;-4.312;2022-10-01T08:18:38;6.88;;;1.27;;
53064;SDS011;38948;48.376;-4.312;2022-10-01T08:21:05;6.80;;;0.70;;
53064;SDS011;38948;48.376;-4.312;2022-10-01T08:23:31;4.68;;;1.13;;
53064;SDS011;38948;48.376;-4.312;2022-10-01T08:26:05;3.22;;;1.00;;
53064;SDS011;38948;48.376;-4.312;2022-10-01T08:28:32;5.70;;;1.08;;
53064;SDS011;38948;48.376;-4.312;2022-10-01T08:31:02;6.05;;;1.15;;
53064;SDS011;38948;48.376;-4.312;2022-10-01T08:33:31;4.40;;;1.02;;
53064;SDS011;38948;48.376;-4.312;2022-10-01T08:35:59;5.22;;;1.17;;
53064;SDS011;38948;48.376;-4.312;2022-10-01T08:38:26;3.95;;;1.00;;
53064;SDS011;38948;48.376;-4.312;2022-10-01T08:40:52;2.75;;;1.13;;
53064;SDS011;38948;48.376;-4.312;2022-10-01T08:45:53;4.05;;;0.75;;
53064;SDS011;38948;48.376;-4.312;2022-10-01T08:48:43;4.63;;;1.15;;
53064;SDS011;38948;48.376;-4.312;2022-10-01T08:51:17;7.15;;;1.02;;
53064;SDS011;38948;48.376;-4.312;2022-10-01T08:53:48;5.38;;;0.88;;
53064;SDS011;38948;48.376;-4.312;2022-10-01T08:56:27;2.05;;;0.60;;
53064;SDS011;38948;48.376;-4.312;2022-10-01T08:58:58;6.95;;;1.35;;
53064;SDS011;38948;48.376;-4.312;2022-10-01T09:01:25;3.58;;;0.93;;
53064;SDS011;38948;48.376;-4.312;2022-10-01T09:03:51;3.78;;;0.77;;
53064;SDS011;38948;48.376;-4.312;2022-10-01T09:06:21;8.90;;;1.65;;
53064;SDS011;38948;48.376;-4.312;2022-10-01T09:09:13;6.45;;;1.50;;
53064;SDS011;38948;48.376;-4.312;2022-10-01T09:21:46;4.55;;;1.10;;
53064;SDS011;38948;48.376;-4.312;2022-10-01T09:24:22;4.68;;;1.05;;
53064;SDS011;38948;48.376;-4.312;2022-10-01T09:26:50;2.67;;;1.10;;
53064;SDS011;38948;48.376;-4.312;2022-10-01T09:29:20;4.65;;;1.17;;
53064;SDS011;38948;48.376;-4.312;2022-10-01T09:31:48;4.30;;;0.82;;
53064;SDS011;38948;48.376;-4.312;2022-10-01T09:34:27;2.92;;;0.90;;
53064;SDS011;38948;48.376;-4.312;2022-10-01T09:37:05;5.82;;;1.00;;
53064;SDS011;38948;48.376;-4.312;2022-10-01T09:39:40;5.82;;;1.35;;
53064;SDS011;38948;48.376;-4.312;2022-10-01T09:42:07;3.40;;;0.90;;
53064;SDS011;38948;48.376;-4.312;2022-10-01T09:44:33;8.57;;;1.73;;
53064;SDS011;38948;48.376;-4.312;2022-10-01T09:47:00;9.70;;;1.23;;
53064;SDS011;38948;48.376;-4.312;2022-10-01T09:49:30;5.13;;;1.33;;
53064;SDS011;38948;48.376;-4.312;2022-10-01T09:52:02;8.63;;;1.38;;
53064;SDS011;38948;48.376;-4.312;2022-10-01T09:57:05;8.48;;;1.20;;
53064;SDS011;38948;48.376;-4.312;2022-10-01T09:59:34;7.18;;;1.10;;
53064;SDS011;38948;48.376;-4.312;2022-10-01T10:02:00;7.88;;;0.95;;
53064;SDS011;38948;48.376;-4.312;2022-10-01T10:04:28;7.47;;;1.17;;
53064;SDS011;38948;48.376;-4.312;2022-10-01T10:06:58;10.07;;;1.75;;
53064;SDS011;38948;48.376;-4.312;2022-10-01T10:09:28;9.65;;;1.70;;
53064;SDS011;38948;48.376;-4.312;2022-10-01T10:11:55;5.93;;;0.98;;
53064;SDS011;38948;48.376;-4.312;2022-10-01T10:14:29;8.02;;;1.42;;
53064;SDS011;38948;48.376;-4.312;2022-10-01T10:16:56;8.02;;;1.52;;
53064;SDS011;38948;48.376;-4.312;2022-10-01T10:19:24;4.70;;;1.30;;
53064;SDS011;38948;48.376;-4.312;2022-10-01T10:21:52;6.28;;;1.08;;
53064;SDS011;38948;48.376;-4.312;2022-10-01T10:24:26;12.43;;;1.52;;
53064;SDS011;38948;48.376;-4.312;2022-10-01T10:26:55;6.35;;;1.38;;
53064;SDS011;38948;48.376;-4.312;2022-10-01T10:29:27;6.57;;;2.00;;
53064;SDS011;38948;48.376;-4.312;2022-10-01T10:31:54;6.43;;;1.30;;
53064;SDS011;38948;48.376;-4.312;2022-10-01T10:34:29;9.57;;;1.50;;
53064;SDS011;38948;48.376;-4.312;2022-10-01T10:36:57;9.80;;;1.67;;
53064;SDS011;38948;48.376;-4.312;2022-10-01T10:39:24;10.07;;;2.00;;
53064;SDS011;38948;48.376;-4.312;2022-10-01T10:41:53;9.20;;;1.40;;
53064;SDS011;38948;48.376;-4.312;2022-10-01T10:44:20;7.03;;;1.17;;
53064;SDS011;38948;48.376;-4.312;2022-10-01T10:46:48;8.38;;;1.42;;
53064;SDS011;38948;48.376;-4.312;2022-10-01T10:49:37;10.35;;;1.58;;
53064;SDS011;38948;48.376;-4.312;2022-10-01T10:52:01;9.60;;;2.13;;
53064;SDS011;38948;48.376;-4.312;2022-10-01T10:54:35;4.63;;;0.90;;
53064;SDS011;38948;48.376;-4.312;2022-10-01T10:57:19;5.57;;;1.23;;
53064;SDS011;38948;48.376;-4.312;2022-10-01T11:02:25;8.93;;;1.50;;
53064;SDS011;38948;48.376;-4.312;2022-10-01T11:04:54;4.57;;;1.50;;
53064;SDS011;38948;48.376;-4.312;2022-10-01T11:07:21;9.45;;;1.75;;
53064;SDS011;38948;48.376;-4.312;2022-10-01T11:12:20;12.65;;;2.40;;
53064;SDS011;38948;48.376;-4.312;2022-10-01T11:17:48;11.40;;;3.23;;
53064;SDS011;38948;48.376;-4.312;2022-10-01T11:25:40;12.90;;;3.42;;
53064;SDS011;38948;48.376;-4.312;2022-10-01T11:28:14;16.27;;;5.35;;
53064;SDS011;38948;48.376;-4.312;2022-10-01T11:31:10;17.90;;;4.05;;
53064;SDS011;38948;48.376;-4.312;2022-10-01T11:36:31;22.52;;;4.35;;
53064;SDS011;38948;48.376;-4.312;2022-10-01T11:39:04;17.20;;;3.63;;
53064;SDS011;38948;48.376;-4.312;2022-10-01T11:41:39;15.07;;;4.15;;
53064;SDS011;38948;48.376;-4.312;2022-10-01T11:44:07;19.15;;;4.03;;
53064;SDS011;38948;48.376;-4.312;2022-10-01T11:51:54;12.00;;;4.00;;
53064;SDS011;38948;48.376;-4.312;2022-10-01T11:54:23;12.95;;;3.13;;
53064;SDS011;38948;48.376;-4.312;2022-10-01T11:56:51;12.50;;;3.63;;
53064;SDS011;38948;48.376;-4.312;2022-10-01T11:59:39;13.77;;;2.95;;
53064;SDS011;38948;48.376;-4.312;2022-10-01T12:02:26;13.95;;;3.35;;
53064;SDS011;38948;48.376;-4.312;2022-10-01T12:12:53;8.23;;;2.17;;
53064;SDS011;38948;48.376;-4.312;2022-10-01T12:15:31;8.02;;;2.28;;
53064;SDS011;38948;48.376;-4.312;2022-10-01T12:20:52;10.75;;;2.40;;
53064;SDS011;38948;48.376;-4.312;2022-10-01T12:23:20;5.97;;;1.70;;
53064;SDS011;38948;48.376;-4.312;2022-10-01T12:41:47;8.70;;;2.75;;
53064;SDS011;38948;48.376;-4.312;2022-10-01T12:49:17;9.00;;;1.45;;
53064;SDS011;38948;48.376;-4.312;2022-10-01T12:54:35;7.57;;;1.83;;
53064;SDS011;38948;48.376;-4.312;2022-10-01T12:59:41;6.25;;;1.60;;
53064;SDS011;38948;48.376;-4.312;2022-10-01T13:02:22;8.90;;;1.42;;
53064;SDS011;38948;48.376;-4.312;2022-10-01T13:07:33;11.40;;;1.65;;
53064;SDS011;38948;48.376;-4.312;2022-10-01T13:14:54;5.80;;;1.27;;
53064;SDS011;38948;48.376;-4.312;2022-10-01T13:17:37;6.00;;;1.40;;
53064;SDS011;38948;48.376;-4.312;2022-10-01T13:20:14;4.40;;;1.15;;
53064;SDS011;38948;48.376;-4.312;2022-10-01T13:22:53;9.10;;;1.60;;
53064;SDS011;38948;48.376;-4.312;2022-10-01T13:27:50;6.40;;;1.48;;
53064;SDS011;38948;48.376;-4.312;2022-10-01T13:32:52;6.05;;;1.58;;
53064;SDS011;38948;48.376;-4.312;2022-10-01T13:37:45;5.15;;;1.45;;
53064;SDS011;38948;48.376;-4.312;2022-10-01T13:40:22;2.58;;;1.00;;
53064;SDS011;38948;48.376;-4.312;2022-10-01T13:42:49;7.68;;;1.60;;
53064;SDS011;38948;48.376;-4.312;2022-10-01T13:46:02;4.55;;;1.20;;
53064;SDS011;38948;48.376;-4.312;2022-10-01T13:48:27;6.35;;;1.83;;
53064;SDS011;38948;48.376;-4.312;2022-10-01T13:53:23;3.92;;;1.40;;
53064;SDS011;38948;48.376;-4.312;2022-10-01T13:55:50;6.00;;;1.13;;
53064;SDS011;38948;48.376;-4.312;2022-10-01T14:00:56;6.05;;;1.27;;
53064;SDS011;38948;48.376;-4.312;2022-10-01T14:06:06;5.90;;;1.50;;
53064;SDS011;38948;48.376;-4.312;2022-10-01T14:13:44;5.93;;;1.37;;
53064;SDS011;38948;48.376;-4.312;2022-10-01T14:16:30;7.60;;;1.58;;
53064;SDS011;38948;48.376;-4.312;2022-10-01T14:19:00;2.85;;;0.93;;
53064;SDS011;38948;48.376;-4.312;2022-10-01T14:29:13;3.10;;;0.98;;
53064;SDS011;38948;48.376;-4.312;2022-10-01T14:32:28;2.97;;;0.90;;
53064;SDS011;38948;48.376;-4.312;2022-10-01T14:34:46;4.80;;;1.00;;
53064;SDS011;38948;48.376;-4.312;2022-10-01T14:37:15;5.07;;;1.30;;
53064;SDS011;38948;48.376;-4.312;2022-10-01T14:39:42;5.25;;;1.10;;
53064;SDS011;38948;48.376;-4.312;2022-10-01T14:42:11;3.83;;;1.00;;
53064;SDS011;38948;48.376;-4.312;2022-10-01T14:44:42;4.63;;;1.23;;
53064;SDS011;38948;48.376;-4.312;2022-10-01T14:49:37;3.83;;;1.02;;
53064;SDS011;38948;48.376;-4.312;2022-10-01T14:52:12;8.73;;;1.60;;
53064;SDS011;38948;48.376;-4.312;2022-10-01T14:54:42;7.32;;;1.15;;
53064;SDS011;38948;48.376;-4.312;2022-10-01T14:57:10;3.13;;;1.15;;
53064;SDS011;38948;48.376;-4.312;2022-10-01T14:59:38;2.38;;;0.90;;
53064;SDS011;38948;48.376;-4.312;2022-10-01T15:02:21;3.50;;;1.23;;
53064;SDS011;38948;48.376;-4.312;2022-10-01T15:04:52;8.27;;;1.40;;
53064;SDS011;38948;48.376;-4.312;2022-10-01T15:07:19;5.60;;;1.35;;
53064;SDS011;38948;48.376;-4.312;2022-10-01T15:09:46;3.83;;;1.08;;
53064;SDS011;38948;48.376;-4.312;2022-10-01T15:12:13;2.83;;;0.90;;
53064;SDS011;38948;48.376;-4.312;2022-10-01T15:14:40;4.38;;;0.82;;
53064;SDS011;38948;48.376;-4.312;2022-10-01T15:17:11;5.80;;;1.00;;
53064;SDS011;38948;48.376;-4.312;2022-10-01T15:19:42;4.82;;;1.10;;
53064;SDS011;38948;48.376;-4.312;2022-10-01T15:22:09;4.50;;;1.10;;
53064;SDS011;38948;48.376;-4.312;2022-10-01T15:24:40;3.13;;;0.88;;
53064;SDS011;38948;48.376;-4.312;2022-10-01T15:27:08;5.47;;;0.98;;
53064;SDS011;38948;48.376;-4.312;2022-10-01T15:29:37;6.35;;;1.15;;
53064;SDS011;38948;48.376;-4.312;2022-10-01T15:32:04;4.93;;;1.13;;
53064;SDS011;38948;48.376;-4.312;2022-10-01T15:34:30;9.23;;;1.20;;
53064;SDS011;38948;48.376;-4.312;2022-10-01T15:36:56;9.45;;;1.67;;
53064;SDS011;38948;48.376;-4.312;2022-10-01T15:39:38;4.65;;;1.10;;
53064;SDS011;38948;48.376;-4.312;2022-10-01T15:42:19;2.22;;;0.80;;
53064;SDS011;38948;48.376;-4.312;2022-10-01T15:44:46;3.35;;;0.95;;
53064;SDS011;38948;48.376;-4.312;2022-10-01T15:47:26;8.50;;;1.10;;
53064;SDS011;38948;48.376;-4.312;2022-10-01T15:50:00;6.75;;;1.30;;
53064;SDS011;38948;48.376;-4.312;2022-10-01T15:52:27;13.52;;;1.98;;
53064;SDS011;38948;48.376;-4.312;2022-10-01T15:55:13;7.32;;;1.52;;
53064;SDS011;38948;48.376;-4.312;2022-10-01T15:57:39;6.32;;;1.35;;
53064;SDS011;38948;48.376;-4.312;2022-10-01T16:00:15;3.97;;;1.08;;
53064;SDS011;38948;48.376;-4.312;2022-10-01T16:02:45;3.60;;;1.02;;
53064;SDS011;38948;48.376;-4.312;2022-10-01T16:05:13;5.78;;;1.13;;
53064;SDS011;38948;48.376;-4.312;2022-10-01T16:07:40;18.85;;;2.65;;
53064;SDS011;38948;48.376;-4.312;2022-10-01T16:10:28;18.85;;;4.15;;
53064;SDS011;38948;48.376;-4.312;2022-10-01T16:12:56;13.13;;;2.80;;
53064;SDS011;38948;48.376;-4.312;2022-10-01T16:15:25;9.38;;;2.00;;
53064;SDS011;38948;48.376;-4.312;2022-10-01T16:17:52;8.10;;;1.67;;
53064;SDS011;38948;48.376;-4.312;2022-10-01T16:20:38;6.93;;;1.40;;
53064;SDS011;38948;48.376;-4.312;2022-10-01T16:25:51;5.40;;;1.45;;
53064;SDS011;38948;48.376;-4.312;2022-10-01T16:28:24;6.80;;;1.58;;
53064;SDS011;38948;48.376;-4.312;2022-10-01T16:30:51;4.18;;;1.45;;
53064;SDS011;38948;48.376;-4.312;2022-10-01T16:33:17;5.30;;;1.98;;
53064;SDS011;38948;48.376;-4.312;2022-10-01T16:35:44;12.60;;;4.55;;
53064;SDS011;38948;48.376;-4.312;2022-10-01T16:38:11;8.35;;;3.42;;
53064;SDS011;38948;48.376;-4.312;2022-10-01T16:40:39;10.93;;;3.47;;
53064;SDS011;38948;48.376;-4.312;2022-10-01T16:43:06;7.38;;;3.70;;
53064;SDS011;38948;48.376;-4.312;2022-10-01T16:45:34;13.65;;;5.35;;
53064;SDS011;38948;48.376;-4.312;2022-10-01T16:48:04;8.15;;;3.95;;
53064;SDS011;38948;48.376;-4.312;2022-10-01T16:50:34;10.07;;;5.05;;
53064;SDS011;38948;48.376;-4.312;2022-10-01T16:53:00;8.35;;;4.40;;
53064;SDS011;38948;48.376;-4.312;2022-10-01T16:55:30;16.73;;;5.00;;
53064;SDS011;38948;48.376;-4.312;2022-10-01T16:58:01;11.88;;;4.43;;
53064;SDS011;38948;48.376;-4.312;2022-10-01T17:00:28;9.35;;;4.15;;
53064;SDS011;38948;48.376;-4.312;2022-10-01T17:02:55;11.38;;;5.82;;
53064;SDS011;38948;48.376;-4.312;2022-10-01T17:07:48;16.30;;;7.75;;
53064;SDS011;38948;48.376;-4.312;2022-10-01T17:10:15;20.23;;;8.00;;